Terminal Aerodrome Forecast
Issued by NWS

Home | Current Version | Previous Version | Graphics & Text | Print | Product List | Glossary On
Versions: 1 2 3 4 5 6 7 8 9 10 11 12 13 14 15 16 17 18
000
FTUS43 KBIS 241100
TAFDIK
TAF
KDIK 241120Z 2412/2512 26011KT P6SM BKN120
     FM241400 27015G21KT P6SM SCT120
     FM241600 28020G27KT P6SM FEW120
     FM250100 29006KT P6SM FEW090 SCT300
     FM250500 22005KT P6SM BKN090=

USA.gov is the U.S. government's official web portal to all federal, state and local government web resources and services.